createdAt,value
2022-10-23T00:00:59.484Z,12.00
2022-10-23T00:03:30.206Z,14.48
2022-10-23T00:06:00.663Z,15.90
2022-10-23T00:08:31.083Z,15.73
2022-10-23T00:11:01.674Z,16.27
2022-10-23T00:13:32.154Z,17.90
2022-10-23T00:16:05.329Z,16.17
2022-10-23T00:18:36.026Z,15.43
2022-10-23T00:21:07.458Z,11.27
2022-10-23T00:23:37.899Z,16.67
2022-10-23T00:26:08.753Z,20.85
2022-10-23T00:28:39.168Z,14.30
2022-10-23T00:31:12.499Z,18.23
2022-10-23T00:33:45.071Z,14.95
2022-10-23T00:36:18.673Z,17.98
2022-10-23T00:38:49.587Z,18.58
2022-10-23T00:41:23.287Z,17.52
2022-10-23T00:44:10.456Z,17.83
2022-10-23T00:46:43.480Z,18.10
2022-10-23T00:49:13.998Z,14.02
2022-10-23T00:51:48.037Z,17.13
2022-10-23T00:54:24.435Z,13.95
2022-10-23T00:56:59.153Z,15.27
2022-10-23T00:59:30.260Z,13.82
2022-10-23T01:02:03.903Z,16.88
2022-10-23T01:04:35.241Z,11.93
2022-10-23T01:07:14.511Z,15.18
2022-10-23T01:09:54.809Z,16.75
2022-10-23T01:12:31.980Z,16.95
2022-10-23T01:15:09.678Z,12.10
2022-10-23T01:17:47.130Z,19.27
2022-10-23T01:20:34.888Z,18.38
2022-10-23T01:23:33.184Z,13.98
2022-10-23T01:26:20.530Z,16.27
2022-10-23T01:28:58.772Z,18.23
2022-10-23T01:31:36.810Z,16.40
2022-10-23T01:34:12.970Z,18.00
2022-10-23T01:36:50.084Z,14.82
2022-10-23T01:39:25.575Z,15.20
2022-10-23T01:42:00.869Z,12.85
2022-10-23T01:44:42.737Z,17.50
2022-10-23T01:47:16.100Z,13.02
2022-10-23T01:50:09.817Z,12.15
2022-10-23T01:52:43.137Z,11.10
2022-10-23T01:55:16.076Z,16.00
2022-10-23T01:57:48.739Z,11.52
2022-10-23T02:00:22.898Z,14.90
2022-10-23T02:02:59.132Z,18.95
2022-10-23T02:05:35.631Z,12.95
2022-10-23T02:08:09.455Z,15.50
2022-10-23T02:10:48.121Z,14.65
2022-10-23T02:13:26.190Z,16.02
2022-10-23T02:16:06.236Z,13.65
2022-10-23T02:18:42.967Z,13.63
2022-10-23T02:21:17.332Z,14.38
2022-10-23T02:23:56.302Z,12.00
2022-10-23T02:26:30.212Z,17.40
2022-10-23T02:29:07.452Z,15.82
2022-10-23T02:31:42.477Z,16.30
2022-10-23T02:34:13.598Z,11.75
2022-10-23T02:36:44.595Z,16.48
2022-10-23T02:39:15.845Z,12.82
2022-10-23T02:41:52.172Z,13.38
2022-10-23T02:44:42.007Z,12.07
2022-10-23T02:47:33.627Z,17.00
2022-10-23T02:50:10.248Z,14.90
2022-10-23T02:52:50.534Z,14.90
2022-10-23T02:55:30.995Z,21.20
2022-10-23T02:58:11.238Z,14.65
2022-10-23T03:00:52.386Z,14.38
2022-10-23T03:03:32.995Z,17.70
2022-10-23T03:06:04.417Z,14.88
2022-10-23T03:08:45.138Z,15.82
2022-10-23T03:11:15.550Z,15.30
2022-10-23T03:13:46.027Z,16.80
2022-10-23T03:16:16.415Z,14.10
2022-10-23T03:18:55.953Z,19.40
2022-10-23T03:21:27.453Z,14.93
2022-10-23T03:23:57.976Z,15.30
2022-10-23T03:26:42.290Z,17.20
2022-10-23T03:29:13.503Z,18.45
2022-10-23T03:31:49.256Z,13.05
2022-10-23T03:34:22.855Z,15.93
2022-10-23T03:36:56.594Z,14.57
2022-10-23T03:39:27.154Z,19.83
2022-10-23T03:41:57.599Z,15.27
2022-10-23T03:44:28.196Z,14.05
2022-10-23T03:47:00.899Z,14.65
2022-10-23T03:49:34.151Z,15.55
2022-10-23T03:52:09.499Z,15.07
2022-10-23T03:54:40.068Z,15.57
2022-10-23T03:57:10.563Z,13.70
2022-10-23T03:59:41.096Z,12.05
2022-10-23T04:02:11.787Z,14.18
2022-10-23T04:04:45.155Z,14.68
2022-10-23T04:07:17.126Z,15.17
2022-10-23T04:09:48.689Z,16.48
2022-10-23T04:12:20.326Z,14.32
2022-10-23T04:14:50.748Z,19.10
2022-10-23T04:17:21.501Z,19.10
2022-10-23T04:19:55.866Z,16.45
2022-10-23T04:22:28.380Z,18.27
2022-10-23T04:24:59.365Z,15.15
2022-10-23T04:27:29.831Z,16.00
2022-10-23T04:30:00.366Z,9.95
2022-10-23T04:32:31.571Z,16.52
2022-10-23T04:35:04.788Z,11.00
2022-10-23T04:37:35.511Z,13.90
2022-10-23T04:40:06.271Z,11.90
2022-10-23T04:42:39.548Z,18.05
2022-10-23T04:45:11.243Z,17.55
2022-10-23T04:47:44.154Z,18.23
2022-10-23T04:50:18.170Z,14.55
2022-10-23T04:53:07.175Z,14.93
2022-10-23T04:55:37.660Z,10.43
2022-10-23T04:58:16.090Z,12.35
2022-10-23T05:00:47.954Z,14.57
2022-10-23T05:03:26.884Z,12.48
2022-10-23T05:06:00.258Z,18.55
2022-10-23T05:08:57.310Z,14.55
2022-10-23T05:11:46.210Z,12.88
2022-10-23T05:14:21.979Z,14.82
2022-10-23T05:16:57.982Z,17.75
2022-10-23T05:19:32.131Z,22.17
2022-10-23T05:22:05.810Z,16.05
2022-10-23T05:24:57.867Z,12.93
2022-10-23T05:27:30.136Z,13.05
2022-10-23T05:30:00.646Z,12.35
2022-10-23T05:32:35.189Z,11.40
2022-10-23T05:35:10.742Z,19.63
2022-10-23T05:37:46.798Z,14.13
2022-10-23T05:40:23.117Z,16.23
2022-10-23T05:46:01.007Z,15.57
2022-10-23T05:48:46.773Z,13.32
2022-10-23T05:51:21.307Z,15.05
2022-10-23T05:54:08.666Z,16.13
2022-10-23T05:56:52.036Z,15.68
2022-10-23T05:59:45.796Z,16.55
2022-10-23T06:02:26.641Z,14.38
2022-10-23T06:05:04.174Z,17.58
2022-10-23T06:07:44.290Z,13.30
2022-10-23T06:10:18.324Z,17.40
2022-10-23T06:12:54.971Z,14.02
2022-10-23T06:15:25.499Z,33.40
2022-10-23T06:18:04.043Z,13.45
2022-10-23T06:20:40.131Z,13.27
2022-10-23T06:23:19.328Z,18.52
2022-10-23T06:26:13.300Z,13.00
2022-10-23T06:29:19.382Z,21.40
2022-10-23T06:31:52.711Z,16.27
2022-10-23T06:34:23.378Z,18.10
2022-10-23T06:36:53.908Z,16.27
2022-10-23T06:39:47.386Z,17.83
2022-10-23T06:42:23.531Z,18.67
2022-10-23T06:45:04.709Z,17.63
2022-10-23T06:47:57.101Z,24.77
2022-10-23T06:50:46.266Z,20.65
2022-10-23T06:53:23.913Z,13.35
2022-10-23T06:56:08.494Z,14.48
2022-10-23T06:58:43.367Z,12.43
2022-10-23T07:01:18.807Z,14.73
2022-10-23T07:03:51.523Z,12.98
2022-10-23T07:06:27.797Z,11.75
2022-10-23T07:08:58.527Z,13.38
2022-10-23T07:12:01.294Z,12.52
2022-10-23T07:14:43.878Z,13.35
2022-10-23T07:17:15.102Z,16.33
2022-10-23T07:19:45.951Z,12.48
2022-10-23T07:22:18.733Z,14.43
2022-10-23T07:25:08.627Z,12.23
2022-10-23T07:27:43.280Z,13.88
2022-10-23T07:30:18.062Z,12.70
2022-10-23T07:32:53.769Z,12.55
2022-10-23T07:35:50.251Z,14.57
2022-10-23T07:38:30.313Z,11.77
2022-10-23T07:41:01.315Z,14.10
2022-10-23T07:46:08.441Z,13.65
2022-10-23T07:48:43.198Z,9.52
2022-10-23T07:51:17.220Z,11.23
2022-10-23T07:53:50.172Z,8.23
2022-10-23T07:56:49.613Z,10.80
2022-10-23T07:59:33.447Z,12.73
2022-10-23T08:02:17.952Z,8.35
2022-10-23T08:04:51.452Z,7.45
2022-10-23T08:07:29.982Z,11.40
2022-10-23T08:10:01.834Z,9.25
2022-10-23T08:12:33.620Z,7.85
2022-10-23T08:15:04.773Z,8.95
2022-10-23T08:17:48.232Z,6.35
2022-10-23T08:20:24.337Z,5.88
2022-10-23T08:22:56.779Z,6.10
2022-10-23T08:25:29.294Z,9.87
2022-10-23T08:28:02.017Z,6.18
2022-10-23T08:30:35.331Z,8.38
2022-10-23T08:33:09.866Z,7.13
2022-10-23T08:35:41.643Z,7.75
2022-10-23T08:38:13.452Z,7.90
2022-10-23T08:40:49.776Z,5.60
2022-10-23T08:43:42.462Z,7.38
2022-10-23T08:46:34.988Z,6.72
2022-10-23T08:49:38.581Z,10.50
2022-10-23T08:52:18.876Z,4.55
2022-10-23T08:55:03.329Z,8.60
2022-10-23T08:57:41.386Z,6.93
2022-10-23T09:00:18.468Z,7.68
2022-10-23T09:02:51.092Z,11.43
2022-10-23T09:05:30.435Z,7.10
2022-10-23T09:08:14.665Z,5.85
2022-10-23T09:11:04.685Z,6.63
2022-10-23T09:13:59.332Z,8.68
2022-10-23T09:16:42.128Z,5.53
2022-10-23T09:19:17.704Z,9.65
2022-10-23T09:21:52.858Z,6.18
2022-10-23T09:26:56.855Z,9.55
2022-10-23T09:29:29.916Z,11.48
2022-10-23T09:32:01.959Z,3.58
2022-10-23T09:34:33.932Z,6.18
2022-10-23T09:37:23.455Z,5.78
2022-10-23T09:40:05.530Z,4.88
2022-10-23T09:42:36.079Z,6.20
2022-10-23T09:45:06.978Z,5.25
2022-10-23T09:47:37.573Z,4.97
2022-10-23T09:50:23.361Z,2.85
2022-10-23T09:52:59.002Z,7.43
2022-10-23T09:55:30.470Z,6.32
2022-10-23T09:58:01.299Z,10.35
2022-10-23T10:00:31.774Z,4.60
2022-10-23T10:03:04.010Z,9.73
2022-10-23T10:06:05.705Z,3.58
2022-10-23T10:08:49.533Z,3.63
2022-10-23T10:11:28.203Z,4.43
2022-10-23T10:14:27.942Z,5.03
2022-10-23T10:17:04.817Z,4.35
2022-10-23T10:19:48.600Z,5.65
2022-10-23T10:22:30.088Z,3.85
2022-10-23T10:25:12.334Z,3.08
2022-10-23T10:27:55.534Z,2.25
2022-10-23T10:30:27.566Z,5.75
2022-10-23T10:33:02.056Z,6.05
2022-10-23T10:35:41.012Z,3.53
2022-10-23T10:38:30.636Z,2.67
2022-10-23T10:41:30.101Z,3.65
2022-10-23T10:44:13.896Z,4.53
2022-10-23T10:46:49.708Z,3.17
2022-10-23T10:49:26.571Z,6.35
2022-10-23T10:52:22.798Z,4.20
2022-10-23T10:55:04.155Z,4.63
2022-10-23T10:57:42.606Z,6.95
2022-10-23T11:00:18.425Z,4.68
2022-10-23T11:02:51.294Z,3.60
2022-10-23T11:05:29.734Z,4.57
2022-10-23T11:08:03.424Z,2.78
2022-10-23T11:10:35.696Z,6.30
2022-10-23T11:13:08.965Z,10.10
2022-10-23T11:15:47.556Z,5.90
2022-10-23T11:18:26.765Z,8.73
2022-10-23T11:21:08.911Z,4.15
2022-10-23T11:24:15.892Z,5.00
2022-10-23T11:27:00.372Z,2.65
2022-10-23T11:29:57.410Z,4.45
2022-10-23T11:32:44.521Z,5.25
2022-10-23T11:35:31.023Z,3.25
2022-10-23T11:38:03.907Z,3.78
2022-10-23T11:40:34.606Z,5.30
2022-10-23T11:43:05.068Z,7.60
2022-10-23T11:45:40.421Z,6.70
2022-10-23T11:48:24.984Z,2.50
2022-10-23T11:51:00.215Z,6.40
2022-10-23T11:53:42.690Z,5.13
2022-10-23T11:56:31.346Z,2.30
2022-10-23T11:59:02.532Z,3.30
2022-10-23T12:01:40.205Z,4.93
2022-10-23T12:04:25.382Z,3.70
2022-10-23T12:09:36.267Z,1.52
2022-10-23T12:12:18.731Z,4.38
2022-10-23T12:14:51.189Z,3.40
2022-10-23T12:17:36.071Z,4.10
2022-10-23T12:20:32.764Z,3.42
2022-10-23T12:23:19.026Z,3.45
2022-10-23T12:26:07.922Z,2.55
2022-10-23T12:28:44.976Z,3.70
2022-10-23T12:31:28.995Z,3.17
2022-10-23T12:34:13.117Z,2.42
2022-10-23T12:36:56.978Z,4.72
2022-10-23T12:39:29.758Z,3.75
2022-10-23T12:42:01.780Z,3.33
2022-10-23T12:44:33.155Z,4.82
2022-10-23T12:47:05.534Z,5.35
2022-10-23T12:49:38.760Z,2.85
2022-10-23T12:52:18.658Z,7.80
2022-10-23T12:54:50.947Z,5.40
2022-10-23T12:57:26.063Z,3.25
2022-10-23T13:00:00.927Z,2.53
2022-10-23T13:02:32.972Z,5.68
2022-10-23T13:05:11.613Z,3.25
2022-10-23T13:07:52.271Z,4.75
2022-10-23T13:10:31.299Z,4.18
2022-10-23T13:13:10.352Z,4.28
2022-10-23T13:15:42.654Z,3.20
2022-10-23T13:18:14.460Z,4.10
2022-10-23T13:20:59.888Z,4.07
2022-10-23T13:26:04.223Z,4.05
2022-10-23T13:28:36.728Z,2.65
2022-10-23T13:31:10.663Z,3.67
2022-10-23T13:33:42.442Z,3.65
2022-10-23T13:36:27.654Z,2.72
2022-10-23T13:39:15.427Z,4.03
2022-10-23T13:41:47.759Z,3.70
2022-10-23T13:46:52.630Z,5.72
2022-10-23T13:49:23.234Z,4.07
2022-10-23T13:51:59.232Z,3.03
2022-10-23T13:54:31.474Z,3.50
2022-10-23T13:57:02.098Z,4.40
2022-10-23T13:59:32.559Z,4.15
2022-10-23T14:02:05.263Z,3.95
2022-10-23T14:04:35.862Z,5.05
2022-10-23T14:07:09.019Z,4.78
2022-10-23T14:09:39.495Z,3.42
2022-10-23T14:12:10.222Z,3.85
2022-10-23T14:14:40.747Z,3.88
2022-10-23T14:17:11.439Z,5.03
2022-10-23T14:19:42.345Z,7.63
2022-10-23T14:22:16.648Z,5.28
2022-10-23T14:24:47.129Z,7.23
2022-10-23T14:27:17.665Z,8.43
2022-10-23T14:29:48.105Z,6.93
2022-10-23T14:32:18.661Z,6.18
2022-10-23T14:34:54.472Z,2.78
2022-10-23T14:37:27.613Z,3.50
2022-10-23T14:39:58.004Z,3.30
2022-10-23T14:42:34.190Z,12.63
2022-10-23T14:45:04.983Z,9.55
2022-10-23T14:47:35.611Z,4.60
2022-10-23T14:50:06.900Z,7.07
2022-10-23T14:52:40.134Z,8.77
2022-10-23T14:55:11.659Z,4.00
2022-10-23T14:57:43.181Z,5.10
2022-10-23T15:00:15.557Z,5.05
2022-10-23T15:02:46.479Z,6.38
2022-10-23T15:05:17.299Z,8.10
2022-10-23T15:07:50.463Z,8.65
2022-10-23T15:10:21.116Z,10.27
2022-10-23T15:12:51.618Z,7.68
2022-10-23T15:15:22.547Z,8.63
2022-10-23T15:17:53.188Z,7.45
2022-10-23T15:20:23.617Z,7.45
2022-10-23T15:22:56.732Z,10.32
2022-10-23T15:25:27.212Z,9.95
2022-10-23T15:27:57.709Z,11.52
2022-10-23T15:30:28.090Z,6.47
2022-10-23T15:32:58.668Z,7.57
2022-10-23T15:38:22.640Z,7.05
2022-10-23T15:40:53.524Z,8.38
2022-10-23T15:43:24.018Z,4.55
2022-10-23T15:45:54.553Z,7.97
2022-10-23T15:48:25.089Z,5.45
2022-10-23T15:50:55.490Z,9.13
2022-10-23T15:53:28.739Z,9.48
2022-10-23T15:55:59.205Z,10.98
2022-10-23T15:58:29.845Z,7.60
2022-10-23T16:01:03.092Z,7.22
2022-10-23T16:03:34.044Z,10.77
2022-10-23T16:06:07.140Z,8.98
2022-10-23T16:08:41.154Z,9.25
2022-10-23T16:11:17.483Z,5.13
2022-10-23T16:13:48.085Z,10.15
2022-10-23T16:16:19.950Z,7.13
2022-10-23T16:18:50.862Z,8.35
2022-10-23T16:21:23.528Z,15.07
2022-10-23T16:23:59.600Z,16.10
2022-10-23T16:26:30.849Z,13.73
2022-10-23T16:29:04.036Z,16.92
2022-10-23T16:31:35.703Z,14.15
2022-10-23T16:34:07.763Z,15.93
2022-10-23T16:36:39.247Z,15.15
2022-10-23T16:39:39.284Z,16.65
2022-10-23T16:42:31.501Z,20.48
2022-10-23T16:45:22.195Z,15.75
2022-10-23T16:47:52.610Z,15.60
2022-10-23T16:50:23.321Z,16.98
2022-10-23T16:52:55.788Z,21.52
2022-10-23T16:55:29.405Z,18.80
2022-10-23T16:58:00.903Z,22.10
2022-10-23T17:00:35.403Z,21.23
2022-10-23T17:03:07.157Z,20.38
2022-10-23T17:05:38.398Z,19.00
2022-10-23T17:08:08.892Z,33.40
2022-10-23T17:10:42.197Z,18.05
2022-10-23T17:13:12.659Z,19.98
2022-10-23T17:15:43.367Z,20.48
2022-10-23T17:18:13.936Z,19.25
2022-10-23T17:20:44.833Z,24.50
2022-10-23T17:23:15.350Z,17.92
2022-10-23T17:25:49.717Z,15.85
2022-10-23T17:28:20.249Z,14.40
2022-10-23T17:30:50.902Z,16.63
2022-10-23T17:33:21.732Z,11.07
2022-10-23T17:35:52.618Z,10.63
2022-10-23T17:38:23.159Z,10.30
2022-10-23T17:40:56.263Z,12.43
2022-10-23T17:43:26.684Z,15.20
2022-10-23T17:45:57.181Z,15.35
2022-10-23T17:48:27.819Z,17.10
2022-10-23T17:51:06.224Z,18.15
2022-10-23T17:53:37.917Z,19.50
2022-10-23T17:56:13.036Z,21.38
2022-10-23T17:58:43.463Z,15.93
2022-10-23T18:01:16.652Z,14.18
2022-10-23T18:03:47.232Z,14.25
2022-10-23T18:06:20.024Z,16.70
2022-10-23T18:08:50.793Z,16.10
2022-10-23T18:11:27.028Z,14.90
2022-10-23T18:13:57.521Z,15.82
2022-10-23T18:16:28.697Z,14.27
2022-10-23T18:18:59.436Z,11.70
2022-10-23T18:21:31.323Z,16.23
2022-10-23T18:24:02.520Z,11.20
2022-10-23T18:26:37.892Z,13.25
2022-10-23T18:31:40.911Z,15.70
2022-10-23T18:34:16.372Z,14.77
2022-10-23T18:36:47.477Z,12.52
2022-10-23T18:39:22.607Z,12.90
2022-10-23T18:44:30.011Z,14.57
2022-10-23T18:47:02.004Z,12.85
2022-10-23T18:49:32.524Z,14.80
2022-10-23T18:52:03.654Z,13.50
2022-10-23T18:54:34.087Z,13.80
2022-10-23T18:57:07.572Z,16.52
2022-10-23T18:59:38.003Z,13.05
2022-10-23T19:02:08.768Z,25.70
2022-10-23T19:04:39.332Z,11.95
2022-10-23T19:07:09.885Z,13.98
2022-10-23T19:09:40.436Z,11.95
2022-10-23T19:15:04.259Z,13.27
2022-10-23T19:17:35.806Z,13.85
2022-10-23T19:20:11.877Z,12.98
2022-10-23T19:22:44.065Z,14.05
2022-10-23T19:25:19.875Z,14.02
2022-10-23T19:27:53.496Z,14.27
2022-10-23T19:30:24.787Z,12.68
2022-10-23T19:32:56.230Z,17.60
2022-10-23T19:35:26.716Z,13.40
2022-10-23T19:37:57.297Z,12.68
2022-10-23T19:40:27.789Z,14.68
2022-10-23T19:43:01.214Z,10.43
2022-10-23T19:48:22.072Z,11.48
2022-10-23T19:50:52.527Z,9.30
2022-10-23T19:53:26.309Z,11.50
2022-10-23T19:56:04.763Z,9.35
2022-10-23T19:58:38.137Z,8.70
2022-10-23T20:01:13.564Z,10.95
2022-10-23T20:03:45.674Z,11.65
2022-10-23T20:06:18.809Z,12.90
2022-10-23T20:08:49.902Z,11.48
2022-10-23T20:11:22.305Z,11.88
2022-10-23T20:13:55.536Z,8.75
2022-10-23T20:16:28.309Z,10.73
2022-10-23T20:18:59.761Z,10.20
2022-10-23T20:21:30.368Z,10.23
2022-10-23T20:24:02.098Z,9.30
2022-10-23T20:26:32.589Z,11.90
2022-10-23T20:29:05.731Z,12.98
2022-10-23T20:31:36.821Z,14.90
2022-10-23T20:34:07.453Z,15.65
2022-10-23T20:36:45.435Z,18.55
2022-10-23T20:39:20.148Z,17.15
2022-10-23T20:41:50.976Z,15.82
2022-10-23T20:44:24.579Z,14.73
2022-10-23T20:46:55.306Z,11.52
2022-10-23T20:49:25.963Z,10.20
2022-10-23T20:51:58.040Z,9.88
2022-10-23T20:54:30.381Z,12.52
2022-10-23T20:57:01.464Z,12.52
2022-10-23T20:59:35.510Z,12.27
2022-10-23T21:02:06.079Z,9.95
2022-10-23T21:04:36.735Z,13.55
2022-10-23T21:07:11.315Z,12.60
2022-10-23T21:09:42.986Z,11.73
2022-10-23T21:12:13.533Z,8.93
2022-10-23T21:14:46.727Z,10.23
2022-10-23T21:17:18.230Z,17.08
2022-10-23T21:19:48.982Z,10.23
2022-10-23T21:22:19.430Z,10.73
2022-10-23T21:24:50.363Z,11.43
2022-10-23T21:27:20.884Z,9.40
2022-10-23T21:29:54.064Z,12.07
2022-10-23T21:32:24.483Z,11.10
2022-10-23T21:34:55.320Z,9.95
2022-10-23T21:37:25.936Z,10.43
2022-10-23T21:39:56.495Z,11.85
2022-10-23T21:42:26.926Z,11.00
2022-10-23T21:45:00.033Z,11.05
2022-10-23T21:47:30.455Z,11.90
2022-10-23T21:50:00.954Z,10.15
2022-10-23T21:52:31.329Z,10.20
2022-10-23T21:55:02.013Z,9.25
2022-10-23T21:57:33.771Z,8.48
2022-10-23T22:00:08.743Z,10.60
2022-10-23T22:02:43.413Z,8.15
2022-10-23T22:05:14.131Z,9.13
2022-10-23T22:07:48.757Z,9.27
2022-10-23T22:10:19.871Z,8.13
2022-10-23T22:12:50.287Z,8.30
2022-10-23T22:15:23.440Z,8.35
2022-10-23T22:17:53.875Z,7.90
2022-10-23T22:20:24.555Z,9.15
2022-10-23T22:22:55.245Z,7.65
2022-10-23T22:25:26.128Z,7.80
2022-10-23T22:27:57.128Z,10.65
2022-10-23T22:30:30.343Z,7.75
2022-10-23T22:33:00.728Z,10.48
2022-10-23T22:35:32.651Z,8.15
2022-10-23T22:38:03.067Z,7.28
2022-10-23T22:40:33.695Z,7.78
2022-10-23T22:43:04.133Z,8.93
2022-10-23T22:45:37.256Z,7.93
2022-10-23T22:48:08.625Z,8.43
2022-10-23T22:50:39.145Z,9.10
2022-10-23T22:53:09.561Z,8.25
2022-10-23T22:55:44.629Z,9.80
2022-10-23T22:58:15.092Z,9.65
2022-10-23T23:00:48.687Z,7.18
2022-10-23T23:03:19.503Z,8.80
2022-10-23T23:05:51.036Z,8.05
2022-10-23T23:08:21.403Z,7.50
2022-10-23T23:10:56.063Z,8.65
2022-10-23T23:13:27.102Z,10.67
2022-10-23T23:16:00.521Z,7.50
2022-10-23T23:18:31.602Z,9.05
2022-10-23T23:21:04.295Z,8.48
2022-10-23T23:23:34.858Z,5.82
2022-10-23T23:26:08.595Z,7.38
2022-10-23T23:28:39.236Z,6.47
2022-10-23T23:31:15.368Z,6.45
2022-10-23T23:33:45.957Z,6.15
2022-10-23T23:36:19.278Z,7.30
2022-10-23T23:38:50.045Z,6.18
2022-10-23T23:41:22.104Z,7.28
2022-10-23T23:43:53.411Z,8.23
2022-10-23T23:46:26.531Z,6.32
2022-10-23T23:48:57.034Z,6.63
2022-10-23T23:51:28.737Z,5.82
2022-10-23T23:53:59.221Z,5.43
2022-10-23T23:56:29.724Z,6.00
2022-10-23T23:59:01.089Z,5.82
